createdAt,value
2018-08-17T00:37:26.554Z,15.1
2018-08-17T00:38:16.333Z,15.1
2018-08-17T00:39:06.713Z,15.1
2018-08-17T00:39:56.745Z,15.1
2018-08-17T00:40:46.521Z,15.1
2018-08-17T00:41:36.859Z,15.1
2018-08-17T00:42:26.978Z,15
2018-08-17T00:43:16.723Z,15
2018-08-17T00:44:06.783Z,15
2018-08-17T00:44:56.839Z,15
2018-08-17T00:45:47.185Z,15
2018-08-17T00:46:37.249Z,15
2018-08-17T00:47:27.308Z,14.9
2018-08-17T00:48:17.105Z,14.9
2018-08-17T00:49:07.489Z,14.9
2018-08-17T00:49:56.940Z,14.9
2018-08-17T00:50:47.575Z,14.9
2018-08-17T00:51:37.646Z,14.9
2018-08-17T00:52:27.741Z,14.9
2018-08-17T00:53:17.518Z,14.9
2018-08-17T00:54:07.567Z,14.8
2018-08-17T00:54:57.895Z,14.8
2018-08-17T00:55:47.693Z,14.8
2018-08-17T00:56:38.030Z,14.8
2018-08-17T00:57:28.094Z,14.8
2018-08-17T00:58:18.154Z,14.8
2018-08-17T00:59:08.237Z,14.8
2018-08-17T00:59:58.293Z,14.8
2018-08-17T01:00:48.339Z,14.8
2018-08-17T01:01:38.404Z,14.8
2018-08-17T01:02:28.188Z,14.7
2018-08-17T01:03:18.267Z,14.7
2018-08-17T01:04:08.606Z,14.7
2018-08-17T01:04:58.656Z,14.7
2018-08-17T01:05:48.719Z,14.6
2018-08-17T01:06:38.785Z,14.7
2018-08-17T01:07:28.854Z,14.6
2018-08-17T01:08:18.926Z,14.6
2018-08-17T01:09:08.995Z,14.6
2018-08-17T01:09:58.780Z,14.6
2018-08-17T01:10:49.118Z,14.6
2018-08-17T01:11:38.713Z,14.6
2018-08-17T01:12:29.248Z,14.6
2018-08-17T01:13:19.332Z,14.6
2018-08-17T01:14:09.380Z,14.6
2018-08-17T01:14:59.441Z,14.6
2018-08-17T01:15:48.935Z,14.6
2018-08-17T01:16:39.292Z,14.6
2018-08-17T01:17:29.642Z,14.6
2018-08-17T01:18:19.460Z,14.5
2018-08-17T01:19:09.760Z,14.6
2018-08-17T01:19:59.837Z,14.5
2018-08-17T01:20:49.890Z,14.5
2018-08-17T01:21:39.967Z,14.5
2018-08-17T01:22:30.037Z,14.5
2018-08-17T01:23:20.090Z,14.5
2018-08-17T01:24:09.883Z,14.5
2018-08-17T01:25:00.214Z,14.5
2018-08-17T01:25:50.293Z,14.5
2018-08-17T01:26:40.124Z,14.4
2018-08-17T01:27:30.415Z,14.5
2018-08-17T01:28:20.207Z,14.5
2018-08-17T01:29:10.293Z,14.4
2018-08-17T01:30:00.599Z,14.4
2018-08-17T01:30:50.455Z,14.4
2018-08-17T01:31:40.740Z,14.4
2018-08-17T01:32:30.815Z,14.4
2018-08-17T01:33:20.863Z,14.4
2018-08-17T01:34:10.714Z,14.4
2018-08-17T01:35:00.716Z,14.4
2018-08-17T01:35:50.807Z,14.4
2018-08-17T01:36:41.132Z,14.4
2018-08-17T01:37:31.209Z,14.4
2018-08-17T01:38:21.266Z,14.4
2018-08-17T01:39:11.331Z,14.4
2018-08-17T01:40:01.384Z,14.4
2018-08-17T01:40:51.449Z,14.4
2018-08-17T01:41:41.504Z,14.4
2018-08-17T01:42:31.570Z,14.4
2018-08-17T01:43:21.640Z,14.4
2018-08-17T01:44:11.441Z,14.4
2018-08-17T01:45:01.798Z,14.4
2018-08-17T01:45:51.556Z,14.4
2018-08-17T01:46:41.633Z,14.4
2018-08-17T01:47:31.969Z,14.4
2018-08-17T01:48:21.465Z,14.3
2018-08-17T01:49:12.079Z,14.3
2018-08-17T01:50:01.898Z,14.3
2018-08-17T01:50:52.233Z,14.3
2018-08-17T01:51:42.296Z,14.3
2018-08-17T01:52:32.363Z,14.3
2018-08-17T01:53:21.863Z,14.4
2018-08-17T01:54:12.468Z,14.3
2018-08-17T01:55:02.543Z,14.3
2018-08-17T01:55:52.605Z,14.3
2018-08-17T01:56:42.111Z,14.3
2018-08-17T01:57:32.187Z,14.3
2018-08-17T01:58:22.521Z,14.3
2018-08-17T01:59:12.613Z,14.3
2018-08-17T02:00:02.943Z,14.3
2018-08-17T02:00:52.725Z,14.3
2018-08-17T02:01:43.089Z,14.3
2018-08-17T02:02:32.844Z,14.3
2018-08-17T02:03:23.228Z,14.3
2018-08-17T02:04:13.288Z,14.3
2018-08-17T02:05:03.320Z,14.3
2018-08-17T02:05:53.398Z,14.3
2018-08-17T02:06:43.168Z,14.3
2018-08-17T02:07:33.244Z,14.3
2018-08-17T02:08:23.577Z,14.3
2018-08-17T02:09:13.359Z,14.3
2018-08-17T02:10:03.712Z,14.3
2018-08-17T02:10:53.522Z,14.3
2018-08-17T02:11:43.847Z,14.3
2018-08-17T02:12:33.923Z,14.3
2018-08-17T02:13:23.687Z,14.3
2018-08-17T02:14:13.751Z,14.3
2018-08-17T02:15:03.831Z,14.3
2018-08-17T02:15:54.180Z,14.3
2018-08-17T02:16:43.952Z,14.3
2018-08-17T02:17:34.017Z,14.3
2018-08-17T02:18:23.802Z,14.3
2018-08-17T02:19:14.139Z,14.3
2018-08-17T02:20:04.509Z,14.3
2018-08-17T02:20:54.543Z,14.3
2018-08-17T02:21:44.331Z,14.3
2018-08-17T02:22:34.671Z,14.3
2018-08-17T02:23:24.458Z,14.3
2018-08-17T02:24:14.857Z,14.3
2018-08-17T02:25:04.611Z,14.3
2018-08-17T02:25:54.656Z,14.3
2018-08-17T02:26:44.998Z,14.3
2018-08-17T02:27:35.079Z,14.3
2018-08-17T02:28:25.130Z,14.3
2018-08-17T02:29:14.925Z,14.3
2018-08-17T02:30:04.702Z,14.3
2018-08-17T02:30:55.077Z,14.3
2018-08-17T02:31:45.390Z,14.3
2018-08-17T02:32:35.469Z,14.3
2018-08-17T02:33:25.555Z,14.3
2018-08-17T02:34:15.580Z,14.3
2018-08-17T02:35:05.669Z,14.3
2018-08-17T02:35:55.717Z,14.3
2018-08-17T02:36:45.793Z,14.3
2018-08-17T02:37:35.865Z,14.3
2018-08-17T02:38:25.936Z,14.3
2018-08-17T02:39:16.001Z,14.4
2018-08-17T02:40:06.035Z,14.4
2018-08-17T02:40:56.174Z,14.3
2018-08-17T02:41:45.897Z,14.3
2018-08-17T02:42:36.233Z,14.3
2018-08-17T02:43:26.317Z,14.3
2018-08-17T02:44:16.371Z,14.3
2018-08-17T02:45:06.432Z,14.4
2018-08-17T02:45:56.503Z,14.3
2018-08-17T02:46:46.567Z,14.3
2018-08-17T02:47:36.369Z,14.4
2018-08-17T02:48:26.704Z,14.4
2018-08-17T02:49:16.751Z,14.4
2018-08-17T02:50:06.258Z,14.3
2018-08-17T02:50:56.610Z,14.4
2018-08-17T02:51:46.660Z,14.4
2018-08-17T02:52:36.751Z,14.4
2018-08-17T02:53:27.068Z,14.3
2018-08-17T02:54:17.133Z,14.4
2018-08-17T02:55:07.017Z,14.4
2018-08-17T02:55:57.296Z,14.4
2018-08-17T02:56:47.065Z,14.4
2018-08-17T02:57:37.412Z,14.4
2018-08-17T02:58:27.192Z,14.4
2018-08-17T02:59:17.530Z,14.4
2018-08-17T03:00:07.621Z,14.4
2018-08-17T03:00:57.373Z,14.4
2018-08-17T03:01:47.707Z,14.4
2018-08-17T03:02:37.217Z,14.4
2018-08-17T03:03:27.596Z,14.4
2018-08-17T03:04:17.909Z,14.4
2018-08-17T03:05:08.005Z,14.4
2018-08-17T03:05:57.769Z,14.4
2018-08-17T03:06:48.116Z,14.4
2018-08-17T03:07:37.898Z,14.4
2018-08-17T03:08:27.940Z,14.4
2018-08-17T03:09:18.300Z,14.4
2018-08-17T03:10:08.370Z,14.4
2018-08-17T03:10:58.159Z,14.5
2018-08-17T03:11:48.519Z,14.5
2018-08-17T03:12:38.556Z,14.5
2018-08-17T03:13:28.369Z,14.5
2018-08-17T03:14:18.711Z,14.5
2018-08-17T03:15:08.779Z,14.5
2018-08-17T03:15:58.820Z,14.5
2018-08-17T03:16:48.350Z,14.5
2018-08-17T03:17:38.955Z,14.5
2018-08-17T03:18:28.752Z,14.6
2018-08-17T03:19:19.086Z,14.5
2018-08-17T03:20:09.160Z,14.6
2018-08-17T03:20:58.958Z,14.6
2018-08-17T03:21:49.122Z,14.6
2018-08-17T03:22:39.071Z,14.6
2018-08-17T03:23:29.412Z,14.6
2018-08-17T03:24:19.195Z,14.6
2018-08-17T03:25:09.541Z,14.6
2018-08-17T03:25:59.620Z,14.6
2018-08-17T03:26:49.658Z,14.6
2018-08-17T03:27:39.715Z,14.6
2018-08-17T03:28:29.801Z,14.6
2018-08-17T03:29:19.839Z,14.6
2018-08-17T03:30:09.937Z,14.6
2018-08-17T03:30:59.731Z,14.6
2018-08-17T03:31:50.031Z,14.6
2018-08-17T03:32:39.822Z,14.6
2018-08-17T03:33:30.158Z,14.6
2018-08-17T03:34:20.228Z,14.6
2018-08-17T03:35:10.025Z,14.6
2018-08-17T03:36:00.420Z,14.6
2018-08-17T03:36:50.433Z,14.6
2018-08-17T03:37:40.504Z,14.6
2018-08-17T03:38:30.270Z,14.7
2018-08-17T03:39:20.350Z,14.7
2018-08-17T03:40:10.397Z,14.7
2018-08-17T03:41:00.486Z,14.7
2018-08-17T03:41:50.809Z,14.7
2018-08-17T03:42:40.915Z,14.7
2018-08-17T03:43:30.945Z,14.7
2018-08-17T03:44:21.013Z,14.7
2018-08-17T03:45:10.824Z,14.7
2018-08-17T03:46:00.873Z,14.7
2018-08-17T03:46:51.213Z,14.7
2018-08-17T03:47:41.001Z,14.8
2018-08-17T03:48:31.355Z,14.8
2018-08-17T03:49:21.129Z,14.8
2018-08-17T03:50:11.480Z,14.8
2018-08-17T03:51:01.541Z,14.8
2018-08-17T03:51:51.607Z,14.8
2018-08-17T03:52:41.682Z,14.8
2018-08-17T03:53:31.447Z,14.8
2018-08-17T03:54:21.793Z,14.8
2018-08-17T03:55:11.862Z,14.8
2018-08-17T03:56:01.929Z,14.8
2018-08-17T03:56:51.997Z,14.8
2018-08-17T03:57:41.514Z,14.8
2018-08-17T03:58:32.117Z,14.8
2018-08-17T03:59:22.183Z,14.8
2018-08-17T04:00:11.973Z,14.8
2018-08-17T04:01:02.331Z,14.8
2018-08-17T04:01:52.375Z,14.8
2018-08-17T04:02:42.423Z,14.8
2018-08-17T04:03:32.220Z,14.8
2018-08-17T04:04:22.283Z,14.8
2018-08-17T04:05:12.626Z,14.8
2018-08-17T04:06:02.702Z,14.8
2018-08-17T04:06:52.484Z,14.8
2018-08-17T04:07:42.833Z,14.8
2018-08-17T04:08:32.909Z,14.8
2018-08-17T04:09:22.970Z,14.8
2018-08-17T04:10:13.026Z,14.8
2018-08-17T04:11:03.063Z,14.8
2018-08-17T04:11:52.594Z,14.8
2018-08-17T04:12:42.804Z,14.8
2018-08-17T04:13:33.279Z,14.8
2018-08-17T04:14:23.370Z,14.8
2018-08-17T04:15:13.110Z,14.8
2018-08-17T04:16:03.467Z,14.8
2018-08-17T04:16:53.518Z,14.8
2018-08-17T04:17:43.645Z,14.8
2018-08-17T04:18:33.650Z,14.8
2018-08-17T04:19:23.727Z,14.8
2018-08-17T04:20:13.800Z,14.8
2018-08-17T04:21:03.863Z,14.8
2018-08-17T04:21:53.929Z,14.8
2018-08-17T04:22:43.989Z,14.8
2018-08-17T04:23:34.075Z,14.8
2018-08-17T04:24:23.846Z,14.8
2018-08-17T04:25:14.193Z,14.9
2018-08-17T04:26:04.246Z,14.9
2018-08-17T04:26:54.051Z,14.8
2018-08-17T04:27:44.100Z,14.9
2018-08-17T04:28:34.452Z,14.9
2018-08-17T04:29:24.494Z,14.9
2018-08-17T04:30:14.599Z,14.9
2018-08-17T04:31:04.635Z,14.9
2018-08-17T04:31:54.706Z,14.9
2018-08-17T04:32:44.758Z,14.9
2018-08-17T04:33:34.819Z,14.9
2018-08-17T04:34:24.616Z,14.9
2018-08-17T04:35:14.709Z,14.9
2018-08-17T04:36:05.033Z,14.9
2018-08-17T04:36:55.074Z,15
2018-08-17T04:37:45.153Z,15
2018-08-17T04:38:35.208Z,15
2018-08-17T04:39:25.262Z,15
2018-08-17T04:40:15.336Z,15.1
2018-08-17T04:41:05.382Z,15.1
2018-08-17T04:41:55.443Z,15.1
2018-08-17T04:42:45.527Z,15.1
2018-08-17T04:43:35.325Z,15.1
2018-08-17T04:44:25.385Z,15.1
2018-08-17T04:45:15.719Z,15.1
2018-08-17T04:46:05.483Z,15.1
2018-08-17T04:46:55.546Z,15.2
2018-08-17T04:47:45.900Z,15.3
2018-08-17T04:48:35.973Z,15.3
2018-08-17T05:06:49.594Z,15.8
2018-08-17T05:07:47.696Z,15.9
2018-08-17T05:08:37.736Z,15.9
2018-08-17T05:09:27.336Z,15.9
2018-08-17T05:10:17.204Z,16
2018-08-17T05:11:06.983Z,16
2018-08-17T05:11:57.044Z,16.1
2018-08-17T05:12:47.384Z,16.1
2018-08-17T05:13:37.459Z,16.1
2018-08-17T05:14:27.244Z,16.1
2018-08-17T05:15:17.637Z,16.2
2018-08-17T05:16:07.643Z,16.2
2018-08-17T05:16:57.718Z,16.3
2018-08-17T05:17:47.780Z,16.3
2018-08-17T05:18:37.850Z,16.3
2018-08-17T05:19:27.906Z,16.3
2018-08-17T05:20:17.984Z,16.4
2018-08-17T05:21:08.073Z,16.4
2018-08-17T05:21:58.153Z,16.4
2018-08-17T05:22:48.165Z,16.4
2018-08-17T05:23:37.953Z,16.5
2018-08-17T05:24:28.314Z,16.6
2018-08-17T05:25:18.109Z,16.6
2018-08-17T05:26:08.142Z,16.6
2018-08-17T05:26:58.488Z,16.6
2018-08-17T05:27:48.552Z,16.7
2018-08-17T05:28:38.646Z,16.8
2018-08-17T05:29:28.422Z,16.8
2018-08-17T05:30:18.761Z,16.8
2018-08-17T05:31:08.543Z,16.9
2018-08-17T05:31:58.897Z,16.9
2018-08-17T05:32:48.947Z,16.9
2018-08-17T05:33:39.035Z,16.9
2018-08-17T05:35:19.120Z,17.1
2018-08-17T05:36:09.194Z,17.1
2018-08-17T05:36:58.994Z,17.1
2018-08-17T05:37:49.307Z,17.2
2018-08-17T05:38:39.381Z,17.3
2018-08-17T05:39:29.173Z,17.3
2018-08-17T05:40:18.966Z,17.3
2018-08-17T05:41:09.573Z,17.4
2018-08-17T05:41:59.646Z,17.4
2018-08-17T05:42:49.456Z,17.5
2018-08-17T05:43:39.767Z,17.6
2018-08-17T05:44:29.833Z,17.6
2018-08-17T05:45:19.618Z,17.7
2018-08-17T05:46:09.965Z,17.8
2018-08-17T05:47:00.017Z,17.8
2018-08-17T05:47:50.085Z,17.9
2018-08-17T05:48:39.593Z,18
2018-08-17T05:49:30.231Z,18.1
2018-08-17T05:50:20.028Z,18.2
2018-08-17T05:51:10.346Z,18.3
2018-08-17T05:52:00.150Z,18.4
2018-08-17T05:52:50.540Z,18.4
2018-08-17T05:53:40.572Z,18.6
2018-08-17T05:55:20.683Z,18.8
2018-08-17T05:56:10.742Z,18.9
2018-08-17T05:57:00.824Z,19.1
2018-08-17T05:57:50.878Z,19.2
2018-08-17T05:58:40.677Z,19.3
2018-08-17T05:59:31.012Z,19.4
2018-08-17T06:00:21.069Z,19.6
2018-08-17T06:01:10.581Z,19.8
2018-08-17T06:02:01.220Z,19.9
2018-08-17T06:02:51.583Z,20.1
2018-08-17T06:03:41.325Z,20.3
2018-08-17T06:04:31.113Z,20.4
2018-08-17T06:05:21.184Z,20.6
2018-08-17T06:06:11.522Z,20.8
2018-08-17T06:07:01.646Z,21
2018-08-17T06:07:51.372Z,21.3
2018-08-17T06:08:41.715Z,21.4
2018-08-17T06:09:31.497Z,21.6
2018-08-17T06:10:21.855Z,21.9
2018-08-17T06:11:12.904Z,22.1
2018-08-17T06:12:01.960Z,22.3
2018-08-17T06:12:51.741Z,22.5
2018-08-17T06:13:42.089Z,22.8
2018-08-17T06:14:32.195Z,22.9
2018-08-17T06:15:22.216Z,23.2
2018-08-17T06:16:12.273Z,23.4
2018-08-17T06:17:02.070Z,23.6
2018-08-17T06:17:52.403Z,23.9
2018-08-17T06:18:42.470Z,24.1
2018-08-17T06:19:32.539Z,24.4
2018-08-17T06:20:22.598Z,24.6
2018-08-17T06:21:12.681Z,24.8
2018-08-17T06:22:02.733Z,25.1
2018-08-17T06:22:52.790Z,25.3
2018-08-17T06:23:42.850Z,25.5
2018-08-17T06:24:32.921Z,25.7
2018-08-17T06:25:22.990Z,25.9
2018-08-17T06:26:13.080Z,26.1
2018-08-17T06:27:02.847Z,26.3
2018-08-17T06:27:53.182Z,26.6
2018-08-17T06:28:43.258Z,26.8
2018-08-17T06:29:33.039Z,26.9
2018-08-17T06:30:22.834Z,27.1
2018-08-17T06:31:13.170Z,27.4
2018-08-17T06:32:03.229Z,27.6
2018-08-17T06:32:53.571Z,27.8
2018-08-17T06:33:43.636Z,27.9
2018-08-17T06:34:33.436Z,21.6
2018-08-17T06:35:23.489Z,23.3
2018-08-17T06:36:13.991Z,26.7
2018-08-17T06:37:03.803Z,27.2
2018-08-17T06:37:53.970Z,29.6
2018-08-17T06:38:44.063Z,30.9
2018-08-17T06:39:34.145Z,30.9
2018-08-17T06:40:24.197Z,30.2
2018-08-17T06:41:14.244Z,29.6
2018-08-17T06:42:04.382Z,29.4
2018-08-17T06:42:54.349Z,29.7
2018-08-17T06:43:44.166Z,30.1
2018-08-17T06:44:34.488Z,30.4
2018-08-17T06:45:24.551Z,30.6
2018-08-17T06:46:14.589Z,30.8
2018-08-17T06:47:04.658Z,30.9
2018-08-17T06:47:54.737Z,31
2018-08-17T06:48:44.507Z,31.1
2018-08-17T06:49:34.866Z,31.2
2018-08-17T06:50:24.918Z,31.3
2018-08-17T06:51:15.206Z,31.5
2018-08-17T06:52:05.051Z,31.6
2018-08-17T06:52:55.099Z,31.8
2018-08-17T06:53:45.186Z,31.9
2018-08-17T06:54:35.252Z,32.1
2018-08-17T06:55:25.345Z,32.4
2018-08-17T06:56:15.379Z,32.7
2018-08-17T06:57:05.558Z,32.9
2018-08-17T06:57:55.228Z,32.9
2018-08-17T06:58:45.555Z,33
2018-08-17T06:59:35.661Z,33.1
2018-08-17T07:00:25.492Z,33.1
2018-08-17T07:01:15.752Z,33.2
2018-08-17T07:02:05.836Z,33.3
2018-08-17T07:02:55.915Z,33.3
2018-08-17T07:03:45.402Z,33.5
2018-08-17T07:04:35.748Z,33.7
2018-08-17T07:05:26.108Z,33.7
2018-08-17T07:06:16.146Z,33.7
2018-08-17T07:07:06.219Z,33.7
2018-08-17T07:07:56.274Z,33.7
2018-08-17T07:08:46.908Z,33.7
2018-08-17T07:09:36.954Z,33.8
2018-08-17T07:10:26.188Z,33.8
2018-08-17T07:11:16.558Z,33.8
2018-08-17T07:12:06.599Z,33.9
2018-08-17T07:12:56.680Z,33.9
2018-08-17T07:13:46.737Z,34
2018-08-17T07:14:36.818Z,34.1
2018-08-17T07:15:26.584Z,34.1
2018-08-17T07:16:16.642Z,34.2
2018-08-17T07:17:07.006Z,34.3
2018-08-17T07:17:56.796Z,34.3
2018-08-17T07:18:47.127Z,34.4
2018-08-17T07:19:37.184Z,34.4
2018-08-17T07:20:27.257Z,34.4
2018-08-17T07:21:17.319Z,34.6
2018-08-17T07:22:07.384Z,34.7
2018-08-17T07:22:57.444Z,34.9
2018-08-17T07:23:47.493Z,35.1
2018-08-17T07:24:37.283Z,35.2
2018-08-17T07:25:27.637Z,35.2
2018-08-17T07:26:17.427Z,35.3
2018-08-17T07:27:07.757Z,35.3
2018-08-17T07:27:58.345Z,35.3
2018-08-17T07:28:47.600Z,35.3
2018-08-17T07:29:37.963Z,35.4
2018-08-17T07:30:27.478Z,35.6
2018-08-17T07:31:17.813Z,35.7
2018-08-17T07:32:08.139Z,35.8
2018-08-17T07:32:57.998Z,35.8
2018-08-17T07:33:48.282Z,35.9
2018-08-17T07:34:38.344Z,35.9
2018-08-17T07:35:28.234Z,36
2018-08-17T07:36:18.208Z,36.1
2018-08-17T07:37:08.275Z,36.1
2018-08-17T07:37:58.593Z,36.1
2018-08-17T07:38:48.384Z,36.2
2018-08-17T07:39:38.736Z,36.3
2018-08-17T07:40:28.797Z,36.6
2018-08-17T07:41:18.875Z,36.8
2018-08-17T07:42:08.947Z,37.1
2018-08-17T07:42:58.998Z,37.5
2018-08-17T07:43:48.810Z,37.8
2018-08-17T07:44:39.141Z,38
2018-08-17T07:45:29.204Z,38.2
2018-08-17T07:46:19.273Z,38.4
2018-08-17T07:47:09.392Z,38.6
2018-08-17T07:47:59.745Z,38.8
2018-08-17T07:48:49.458Z,39
2018-08-17T07:49:39.550Z,39.1
2018-08-17T07:50:29.323Z,39.4
2018-08-17T07:51:19.645Z,39.6
2018-08-17T07:52:09.755Z,39.9
2018-08-17T07:52:59.495Z,40.1
2018-08-17T07:53:49.840Z,40.3
2018-08-17T07:54:39.914Z,40.5
2018-08-17T07:55:29.985Z,40.6
2018-08-17T07:56:19.747Z,40.8
2018-08-17T07:57:09.831Z,41
2018-08-17T07:58:00.169Z,41.2
2018-08-17T07:58:50.079Z,41.4
2018-08-17T07:59:40.296Z,41.6
2018-08-17T08:00:30.080Z,41.8
2018-08-17T08:01:20.145Z,41.9
2018-08-17T08:02:10.487Z,42.1
2018-08-17T08:03:00.528Z,42.3
2018-08-17T08:03:50.595Z,42.5
2018-08-17T08:04:40.674Z,42.8
2018-08-17T08:05:30.780Z,42.9
2018-08-17T08:06:20.807Z,43.1
2018-08-17T08:07:10.865Z,43.3
2018-08-17T08:08:00.921Z,43.5
2018-08-17T08:08:50.986Z,43.6
2018-08-17T08:09:41.052Z,43.8
2018-08-17T08:10:31.132Z,43.6
2018-08-17T08:11:21.205Z,43.3
2018-08-17T08:12:11.245Z,43.4
2018-08-17T08:13:01.054Z,43.5
2018-08-17T08:13:51.593Z,43.7
2018-08-17T08:14:41.691Z,43.9
2018-08-17T08:15:31.531Z,44.1
2018-08-17T08:16:21.311Z,44.3
2018-08-17T08:17:11.663Z,44.5
2018-08-17T08:18:01.740Z,44.6
2018-08-17T08:18:51.793Z,44.8
2018-08-17T08:19:41.846Z,45
2018-08-17T08:20:32.386Z,45.2
2018-08-17T08:21:21.982Z,45.4
2018-08-17T08:22:11.777Z,45.6
2018-08-17T08:23:02.118Z,45.7
2018-08-17T08:23:52.212Z,45.9
2018-08-17T08:24:42.241Z,46.1
2018-08-17T08:25:32.304Z,46.2
2018-08-17T08:26:22.368Z,46.2
2018-08-17T08:27:12.147Z,46.4
2018-08-17T08:28:02.530Z,46.5
2018-08-17T08:28:52.568Z,46.7
2018-08-17T08:29:42.347Z,46.9
2018-08-17T08:30:32.695Z,47.1
2018-08-17T08:31:22.486Z,47.2
2018-08-17T08:32:12.845Z,47.4
2018-08-17T08:33:02.895Z,47.6
2018-08-17T08:33:52.661Z,47.7
2018-08-17T08:34:43.027Z,47.9
2018-08-17T08:35:33.068Z,48.1
2018-08-17T08:36:23.150Z,48.2
2018-08-17T08:37:12.644Z,48.3
2018-08-17T08:38:03.266Z,48.5
2018-08-17T08:38:53.345Z,48.6
2018-08-17T08:39:42.883Z,48.8
2018-08-17T08:40:33.481Z,48.9
2018-08-17T08:41:23.547Z,49.1
2018-08-17T08:42:13.672Z,49.2
2018-08-17T08:43:03.674Z,49.4
2018-08-17T08:43:53.738Z,49.5
2018-08-17T08:44:43.790Z,49.6
2018-08-17T08:45:34.222Z,49.8
2018-08-17T08:46:23.364Z,49.9
2018-08-17T08:47:13.707Z,50.1
2018-08-17T08:48:04.077Z,50.2
2018-08-17T08:48:54.119Z,50.3
2018-08-17T08:49:44.184Z,50.4
2018-08-17T08:50:33.986Z,50.6
2018-08-17T08:51:24.332Z,50.7
2018-08-17T08:52:14.393Z,50.9
2018-08-17T08:53:04.483Z,51
2018-08-17T08:53:54.545Z,51.2
2018-08-17T08:54:44.600Z,51.3
2018-08-17T08:55:34.660Z,51.4
2018-08-17T08:56:24.520Z,51.6
2018-08-17T08:57:14.785Z,51.7
2018-08-17T08:58:04.560Z,51.8
2018-08-17T08:59:44.977Z,52.1
2018-08-17T09:00:35.057Z,52.1
2018-08-17T09:01:25.114Z,52.3
2018-08-17T09:03:05.240Z,52.5
2018-08-17T09:03:55.317Z,52.6
2018-08-17T09:04:45.381Z,52.8
2018-08-17T09:21:12.322Z,55.2
2018-08-17T09:22:01.295Z,55.3
2018-08-17T09:22:51.135Z,55.4
2018-08-17T09:23:41.418Z,55.6
2018-08-17T09:24:31.488Z,55.7
2018-08-17T09:25:21.267Z,55.8
2018-08-17T09:26:11.614Z,55.9
2018-08-17T09:27:01.692Z,56
2018-08-17T09:27:51.804Z,56.1
2018-08-17T09:28:41.523Z,56.2
2018-08-17T09:29:31.905Z,56.3
2018-08-17T09:30:21.977Z,56.4
2018-08-17T09:31:12.012Z,56.5
2018-08-17T09:32:02.089Z,56.6
2018-08-17T09:32:51.874Z,56.8
2018-08-17T09:33:42.202Z,56.9
2018-08-17T09:34:32.326Z,56.9
2018-08-17T09:35:22.371Z,57.1
2018-08-17T09:36:12.538Z,57.1
2018-08-17T09:37:02.516Z,57.3
2018-08-17T09:37:52.561Z,57.4
2018-08-17T09:38:42.363Z,57.4
2018-08-17T09:39:32.391Z,57.6
2018-08-17T09:40:22.748Z,57.6
2018-08-17T09:42:02.397Z,57.9
2018-08-17T09:42:52.924Z,57.9
2018-08-17T09:43:42.437Z,58.1
2018-08-17T09:44:33.057Z,58.1
2018-08-17T09:45:22.841Z,58.2
2018-08-17T09:46:13.203Z,58.3
2018-08-17T09:47:03.253Z,58.4
2018-08-17T09:47:53.036Z,58.5
2018-08-17T09:48:43.376Z,58.6
2018-08-17T09:49:33.454Z,58.7
2018-08-17T09:50:23.494Z,58.8
2018-08-17T09:51:13.388Z,58.9
2018-08-17T09:52:03.638Z,58.9
2018-08-17T09:52:53.717Z,59
2018-08-17T09:53:43.766Z,59.1
2018-08-17T09:54:33.863Z,59.3
2018-08-17T09:55:23.892Z,59.3
2018-08-17T09:56:13.957Z,59.4
2018-08-17T09:57:03.739Z,59.4
2018-08-17T09:57:54.130Z,59.6
2018-08-17T09:58:44.169Z,59.7
2018-08-17T09:59:34.235Z,59.7
2018-08-17T10:00:24.005Z,59.8
2018-08-17T10:01:14.088Z,59.9
2018-08-17T10:02:04.415Z,60
2018-08-17T10:02:54.480Z,60.1
2018-08-17T10:03:44.052Z,60.1
2018-08-17T10:04:34.628Z,60.1
2018-08-17T10:05:24.671Z,60.3
2018-08-17T10:06:14.487Z,60.3
2018-08-17T10:07:04.544Z,60.4
2018-08-17T10:07:54.890Z,60.4
2018-08-17T10:08:44.679Z,60.6
2018-08-17T10:09:34.973Z,60.7
2018-08-17T10:10:24.832Z,60.7
2018-08-17T10:11:15.166Z,60.4
2018-08-17T10:12:05.215Z,60.1
2018-08-17T10:12:55.317Z,59.8
2018-08-17T10:13:45.372Z,59.6
2018-08-17T10:14:35.142Z,59.5
2018-08-17T10:15:25.190Z,59.6
2018-08-17T10:16:15.558Z,59.9
2018-08-17T10:17:05.619Z,60.4
2018-08-17T10:17:55.495Z,60.8
2018-08-17T10:18:45.455Z,60.9
2018-08-17T10:19:35.525Z,61
2018-08-17T10:20:25.598Z,61.1
2018-08-17T10:21:17.358Z,61.2
2018-08-17T10:22:07.585Z,61.3
2018-08-17T10:22:56.078Z,61.3
2018-08-17T10:23:46.134Z,61.1
2018-08-17T10:24:36.199Z,60.8
2018-08-17T10:25:25.976Z,60.4
2018-08-17T10:26:16.331Z,60.1
2018-08-17T10:27:06.120Z,59.9
2018-08-17T10:27:56.459Z,59.8
2018-08-17T10:28:46.270Z,59.7
2018-08-17T10:29:36.578Z,59.6
2018-08-17T10:30:26.654Z,59.4
2018-08-17T10:31:16.434Z,59.3
2018-08-17T10:32:06.513Z,59.1
2018-08-17T10:32:56.866Z,59
2018-08-17T10:33:46.644Z,58.9
2018-08-17T10:34:36.714Z,58.8
2018-08-17T10:35:26.777Z,58.7
2018-08-17T10:36:17.109Z,58.6
2018-08-17T10:37:07.191Z,58.5
2018-08-17T10:37:57.236Z,58.4
2018-08-17T10:38:47.035Z,58.3
2018-08-17T10:39:37.123Z,58.2
2018-08-17T10:40:27.160Z,58.1
2018-08-17T10:41:17.498Z,58.1
2018-08-17T10:42:07.621Z,58
2018-08-17T10:42:57.646Z,57.9
2018-08-17T10:43:47.455Z,57.8
2018-08-17T10:45:27.876Z,57.6
2018-08-17T10:46:17.918Z,57.6
2018-08-17T10:47:07.976Z,57.5
2018-08-17T10:47:58.032Z,57.4
2018-08-17T10:48:47.992Z,57.4
2018-08-17T10:49:37.613Z,57.3
2018-08-17T10:50:28.240Z,57.3
2018-08-17T10:51:18.329Z,57.2
2018-08-17T10:52:08.363Z,57.2
2018-08-17T10:52:58.426Z,57.2
2018-08-17T10:53:48.492Z,57.4
2018-08-17T10:54:38.596Z,57.6
2018-08-17T10:55:28.525Z,57.6
2018-08-17T10:56:18.784Z,57.4
2018-08-17T10:57:08.761Z,57.3
2018-08-17T10:57:58.829Z,57.3
2018-08-17T10:58:48.600Z,57.4
2018-08-17T10:59:38.941Z,57.4
2018-08-17T11:00:29.004Z,57.4
2018-08-17T11:01:19.078Z,57.3
2018-08-17T11:02:09.126Z,57.2
2018-08-17T11:02:59.198Z,57.1
2018-08-17T11:03:49.036Z,56.9
2018-08-17T11:04:39.343Z,56.9
2018-08-17T11:05:29.116Z,56.8
2018-08-17T11:06:19.467Z,56.8
2018-08-17T11:07:09.515Z,56.7
2018-08-17T11:07:59.593Z,56.6
2018-08-17T11:08:49.654Z,56.5
2018-08-17T11:09:39.440Z,56.5
2018-08-17T11:10:29.506Z,56.4
2018-08-17T11:11:19.856Z,56.3
2018-08-17T11:12:09.640Z,56.3
2018-08-17T11:12:59.698Z,56.1
2018-08-17T11:13:50.080Z,56
2018-08-17T11:14:39.568Z,55.9
2018-08-17T11:15:30.014Z,55.9
2018-08-17T11:16:20.248Z,55.9
2018-08-17T11:17:10.471Z,55.9
2018-08-17T11:18:00.439Z,56.3
2018-08-17T11:18:50.467Z,56.7
2018-08-17T11:19:40.523Z,57
2018-08-17T11:20:30.354Z,57.1
2018-08-17T11:21:20.657Z,56.9
2018-08-17T11:22:10.432Z,56.6
2018-08-17T11:23:00.653Z,56.4
2018-08-17T11:23:50.568Z,56.3
2018-08-17T11:24:40.924Z,56.3
2018-08-17T11:25:30.982Z,56.4
2018-08-17T11:26:21.072Z,56.4
2018-08-17T11:27:11.136Z,56.3
2018-08-17T11:28:01.191Z,56.3
2018-08-17T11:28:50.955Z,56.2
2018-08-17T11:29:41.302Z,56.2
2018-08-17T11:30:31.426Z,56.3
2018-08-17T11:31:21.434Z,56.5
2018-08-17T11:32:11.557Z,56.6
2018-08-17T11:33:01.563Z,56.6
2018-08-17T11:33:51.096Z,56.4
2018-08-17T11:34:41.701Z,56.2
2018-08-17T11:35:31.771Z,56.1
2018-08-17T11:36:21.813Z,56.1
2018-08-17T11:37:11.899Z,56
2018-08-17T11:38:01.946Z,56
2018-08-17T11:38:51.752Z,55.9
2018-08-17T11:39:41.534Z,55.9
2018-08-17T11:40:31.880Z,55.9
2018-08-17T11:41:22.073Z,55.9
2018-08-17T11:42:12.299Z,55.9
2018-08-17T11:43:01.796Z,55.9
2018-08-17T11:43:52.428Z,55.9
2018-08-17T11:44:42.499Z,55.9
2018-08-17T11:45:32.569Z,55.9
2018-08-17T11:46:22.323Z,55.9
2018-08-17T11:47:12.682Z,55.9
2018-08-17T11:48:02.760Z,55.8
2018-08-17T11:48:52.252Z,55.7
2018-08-17T11:49:42.858Z,55.6
2018-08-17T11:50:32.922Z,55.4
2018-08-17T11:51:22.994Z,55.4
2018-08-17T11:52:12.783Z,55.3
2018-08-17T11:53:02.873Z,55.3
2018-08-17T11:53:53.571Z,55.2
2018-08-17T11:54:43.318Z,55.1
2018-08-17T11:55:33.058Z,55.1
2018-08-17T11:56:23.140Z,55
2018-08-17T11:57:13.481Z,55
2018-08-17T11:58:03.246Z,54.9
2018-08-17T11:58:53.595Z,55
2018-08-17T11:59:43.403Z,55
2018-08-17T12:00:33.746Z,54.9
2018-08-17T12:01:23.524Z,54.8
2018-08-17T12:02:13.869Z,54.8
2018-08-17T12:03:03.950Z,54.7
2018-08-17T12:03:53.711Z,54.6
2018-08-17T12:04:44.062Z,54.6
2018-08-17T12:05:34.144Z,54.6
2018-08-17T12:06:23.918Z,54.6
2018-08-17T12:07:14.269Z,54.5
2018-08-17T12:08:04.586Z,54.5
2018-08-17T12:08:54.394Z,54.6
2018-08-17T12:09:44.446Z,54.9
2018-08-17T12:10:34.241Z,55.4
2018-08-17T12:11:24.287Z,55.6
2018-08-17T12:12:14.624Z,55.4
2018-08-17T12:13:04.420Z,55.1
2018-08-17T12:13:54.497Z,54.9
2018-08-17T12:14:44.842Z,54.8
2018-08-17T12:15:34.609Z,54.7
2018-08-17T12:16:24.947Z,54.8
2018-08-17T12:17:15.019Z,54.8
2018-08-17T12:18:05.081Z,54.9
2018-08-17T12:18:55.055Z,54.9
2018-08-17T12:19:45.215Z,54.9
2018-08-17T12:20:35.281Z,54.8
2018-08-17T12:21:25.342Z,54.6
2018-08-17T12:22:15.456Z,54.5
2018-08-17T12:23:05.473Z,54.4